AirNav   Phillips 66 Aviation Fuel
 
 891 users online  

74OR Stan Jost Airport
Newberg, Oregon, USA

GOING TO NEWBERG?


FAA INFORMATION EFFECTIVE 11 OCTOBER 2018

Location

FAA Identifier: 74OR
Lat/Long: 45-19-25.4220N / 123-01-08.3700W
45-19.423700N / 123-01.139500W
45.3237283 / -123.0189917
(estimated)
Elevation: 180 ft. / 55 m (estimated)
Variation: 20E (1980)
From city: 3 miles NW of NEWBERG, OR
Time zone: UTC -7 (UTC -8 during Standard Time)
Zip code: 97132

Airport Operations

Airport use: Private use. Permission required prior to landing
Activation date: 12/1986
Control tower: no
ARTCC: SEATTLE CENTER
FSS: MC MINNVILLE FLIGHT SERVICE STATION
Attendance: IREG IREG
Wind indicator: yes, 2 WIND INDICATORS.
Segmented circle: no

Airport Communications

WX ASOS at MMV (9 nm SW): 135.675 (503-434-9153)
WX ASOS at UAO (11 nm SE): PHONE 503-678-3011
WX ASOS at HIO (13 nm N): PHONE 503-640-2984

Nearby radio navigation aids

VOR radial/distance  VOR name  Freq  Var
UBGr203/2.5NEWBERG VOR/DME117.4021E
BTGr194/31.1BATTLE GROUND VORTAC116.6021E

 
NDB name  Hdg/Dist  Freq  Var  ID
BANKS160/18.435616EPND .--. -. -..

Airport Services

Runway Information

Runway 15/33

Dimensions: 1300 x 80 ft. / 396 x 24 m
Surface: turf
RUNWAY 15  RUNWAY 33
Traffic pattern: leftleft
Obstructions: 15 ft. trees, 50 ft. from runwaynone

Airport Ownership and Management from official FAA records

Ownership: Privately-owned
Owner: STAN JOST
15125 NE FLYING FEATHERLANE
NEWBERG, OR 97132
Phone 503-554-9112
Manager: STAN JOST
15125 NE FLYING FEATHERLANE
NEWBERG, OR 97132
Phone 503-554-9112

Airport Operational Statistics

Aircraft based on the field: 1
Single engine airplanes: 1
    

Additional Remarks

FOR CD CTC PORTLAND APCH AT 503-493-7545.

Instrument Procedures

There are no published instrument procedures at 74OR.

Some nearby airports with instrument procedures:

KMMV - Mc Minnville Municipal Airport (9 nm SW)
KUAO - Aurora State Airport (11 nm SE)
KHIO - Portland-Hillsboro Airport (13 nm N)
KVUO - Pearson Field Airport (23 nm NE)
KPDX - Portland International Airport (24 nm NE)
 
Loc | Ops | Rwys | IFR | FBO | Links
Com | Nav | Svcs | Stats | Notes


 
Area around 74OR (Stan Jost Airport)
 
Road maps at: MapQuest Bing Google
 
Aerial photo
WARNING: Photo may not be current or correct
Aerial photo of 74OR (Stan Jost Airport)
Do you have a better or more recent aerial photo of Stan Jost Airport that you would like to share? If so, please send us your photo.

 
Sectional chart

 
Airport distance calculator
Flying to Stan Jost Airport? Find the distance to fly.

From to 74OR

Sunrise and sunset
Times for 20-Oct-2018
 Local
(UTC-7)
 Zulu
(UTC)
Morning civil twilight07:0614:06
Sunrise07:3614:36
Sunset18:1801:18
Evening civil twilight18:4801:48

Current date and time
Zulu (UTC)  20-Oct-2018 22:35:24
Local (UTC-7)  20-Oct-2018 15:35:24
 
METAR
KMMV 
9nm SW 
202153Z AUTO VRB03KT 10SM CLR 21/09 A3002 RMK AO2 SLP165 T02060094 $
KUAO 
12nm E 
202153Z 05009KT 10SM CLR 21/07 A3004 RMK AO2 SLP170 T02060072
KHIO 
14nm N 
202153Z 00000KT 10SM CLR 20/10 A3003 RMK AO2 SLP168 T02000100 $
TAF
KUAO 
12nm E 
201723Z 2018/2118 03005KT P6SM BCFG SCT006 FM201900 03006KT P6SM SKC FM211200 VRB03KT 2SM BR SCT005
KHIO 
14nm N 
201723Z 2018/2118 VRB03KT 6SM BCFG SKC FM201900 34006KT P6SM SKC FM202100 01006KT P6SM SKC FM210300 VRB03KT P6SM SKC FM210900 00000KT 1SM BR OVC003
NOTAMs
Click for the latest NOTAMs
NOTAMs are issued by the DoD/FAA and will open in a separate window not controlled by AirNav.

 

 
 

Would you like to see your business listed on this page?

 If your business provides an interesting product or service to pilots, flight crews, aircraft, or users of the Stan Jost Airport, you should consider listing it here.  To start the listing process, click on the button below
 
Add a business
 

Other Pages about Stan Jost Airport

Update a link
 
Copyright © AirNav, LLC. All rights reserved. Privacy Policy  Contact